KGJT/GJT METAR and TAF weather

Enter ICAO airport designator
Station Type Date Time Source
KGJT METAR 2022/12/08 12:53 UTC NOAA

KGJT 081253Z AUTO 32003KT 10SM FEW022 FEW048 SCT090 M02/M03 A3024 RMK AO2 SLP252 T10171028


Station Type Date Time Source
KGJT Decoded METAR 2022/12/08 12:53 UTC NOAA

GRAND JUNCTION WALKER FIELD, CO, United States (KGJT) 39-08N 108-32W 1452M
Dec 08, 2022 - 07:53 AM EST / 2022.12.08 1253 UTC
Wind: from the NW (320 degrees) at 3 MPH (3 KT):0
Visibility: 10 mile(s):0
Sky conditions: partly cloudy
Temperature: 28.9 F (-1.7 C)
Dew Point: 27.0 F (-2.8 C)
Relative Humidity: 92%
Pressure (altimeter): 30.24 in. Hg (1024 hPa)
ob: KGJT 081253Z AUTO 32003KT 10SM FEW022 FEW048 SCT090 M02/M03 A3024 RMK AO2 SLP252 T10171028
cycle: 13

Station Type Date Time Source
KGJT TAF 2022/12/08 12:27 UTC NOAA

TAF KGJT 081124Z 0812/0912 02005KT P6SM VCSH FEW035 SCT060 BKN070
FM081400 31004KT P6SM VCSH FEW060 BKN150
FM081900 30006KT P6SM VCSH FEW200
FM090000 09004KT P6SM SKC

Example: see airport list